createdAt,value
2023-01-09T00:01:19.183Z,1.17
2023-01-09T00:03:45.997Z,1.02
2023-01-09T00:06:15.330Z,1.38
2023-01-09T00:08:41.942Z,2.13
2023-01-09T00:11:10.639Z,1.50
2023-01-09T00:13:38.279Z,0.93
2023-01-09T00:16:06.449Z,0.65
2023-01-09T00:18:33.544Z,2.50
2023-01-09T00:21:04.531Z,0.75
2023-01-09T00:23:31.139Z,0.63
2023-01-09T00:26:05.777Z,1.40
2023-01-09T00:28:33.128Z,0.88
2023-01-09T00:31:01.084Z,1.00
2023-01-09T00:33:36.941Z,2.92
2023-01-09T00:36:03.560Z,1.30
2023-01-09T00:38:30.219Z,4.47
2023-01-09T00:40:57.383Z,2.05
2023-01-09T00:43:30.408Z,1.77
2023-01-09T00:45:57.807Z,1.08
2023-01-09T00:48:26.640Z,1.75
2023-01-09T00:50:57.709Z,1.20
2023-01-09T00:53:31.362Z,1.25
2023-01-09T00:56:01.359Z,1.13
2023-01-09T00:58:28.301Z,1.38
2023-01-09T01:00:54.960Z,5.57
2023-01-09T01:03:21.542Z,1.77
2023-01-09T01:06:06.432Z,3.03
2023-01-09T01:08:35.323Z,1.55
2023-01-09T01:11:10.296Z,1.27
2023-01-09T01:13:37.809Z,3.70
2023-01-09T01:16:06.067Z,4.13
2023-01-09T01:18:32.782Z,0.95
2023-01-09T01:20:59.386Z,2.17
2023-01-09T01:23:26.281Z,1.50
2023-01-09T01:25:52.921Z,2.83
2023-01-09T01:28:19.553Z,1.33
2023-01-09T01:30:46.161Z,2.15
2023-01-09T01:33:15.196Z,3.05
2023-01-09T01:35:41.721Z,5.22
2023-01-09T01:38:08.314Z,3.50
2023-01-09T01:40:34.905Z,2.17
2023-01-09T01:43:02.631Z,2.47
2023-01-09T01:45:30.327Z,2.30
2023-01-09T01:48:09.841Z,2.03
2023-01-09T01:51:10.358Z,3.95
2023-01-09T01:53:42.275Z,1.90
2023-01-09T01:56:27.107Z,1.77
2023-01-09T01:59:03.460Z,5.25
2023-01-09T02:01:31.341Z,2.30
2023-01-09T02:04:00.537Z,3.22
2023-01-09T02:06:27.817Z,2.13
2023-01-09T02:08:55.411Z,1.52
2023-01-09T02:11:22.147Z,3.25
2023-01-09T02:13:48.983Z,3.25
2023-01-09T02:16:34.679Z,2.92
2023-01-09T02:19:19.537Z,3.92
2023-01-09T02:21:51.974Z,7.15
2023-01-09T02:24:31.755Z,2.47
2023-01-09T02:27:04.869Z,3.25
2023-01-09T02:29:48.140Z,6.15
2023-01-09T02:32:41.781Z,2.38
2023-01-09T02:35:23.368Z,4.82
2023-01-09T02:38:14.025Z,2.08
2023-01-09T02:40:52.570Z,8.23
2023-01-09T02:43:19.760Z,4.55
2023-01-09T02:45:48.628Z,5.07
2023-01-09T02:48:15.250Z,3.33
2023-01-09T02:50:55.000Z,3.63
2023-01-09T02:53:45.843Z,6.07
2023-01-09T02:56:24.567Z,6.20
2023-01-09T02:59:28.852Z,6.32
2023-01-09T03:02:29.629Z,2.35
2023-01-09T03:05:04.935Z,4.28
2023-01-09T03:07:53.763Z,3.05
2023-01-09T03:10:31.949Z,5.07
2023-01-09T03:13:02.159Z,6.75
2023-01-09T03:15:34.359Z,5.45
2023-01-09T03:18:04.305Z,4.50
2023-01-09T03:20:32.329Z,3.53
2023-01-09T03:23:02.686Z,3.20
2023-01-09T03:25:30.294Z,11.30
2023-01-09T03:27:59.935Z,3.83
2023-01-09T03:30:30.829Z,5.53
2023-01-09T03:32:58.031Z,4.00
2023-01-09T03:35:27.377Z,3.75
2023-01-09T03:37:54.439Z,3.42
2023-01-09T03:40:21.301Z,6.28
2023-01-09T03:42:50.636Z,6.50
2023-01-09T03:45:19.300Z,6.35
2023-01-09T03:47:45.843Z,2.00
2023-01-09T03:50:12.635Z,7.10
2023-01-09T03:52:41.524Z,6.82
2023-01-09T03:55:08.496Z,5.78
2023-01-09T03:57:35.106Z,5.60
2023-01-09T04:00:01.732Z,6.40
2023-01-09T04:02:28.387Z,6.32
2023-01-09T04:04:57.283Z,1.98
2023-01-09T04:07:23.803Z,3.55
2023-01-09T04:09:50.397Z,6.65
2023-01-09T04:12:19.149Z,5.45
2023-01-09T04:14:50.507Z,6.53
2023-01-09T04:17:17.045Z,10.25
2023-01-09T04:19:43.740Z,10.02
2023-01-09T04:22:10.285Z,6.80
2023-01-09T04:24:36.834Z,3.72
2023-01-09T04:27:03.930Z,6.75
2023-01-09T04:29:30.493Z,7.28
2023-01-09T04:31:57.034Z,3.72
2023-01-09T04:34:25.972Z,8.70
2023-01-09T04:36:53.427Z,4.82
2023-01-09T04:39:22.549Z,6.95
2023-01-09T04:41:49.083Z,4.88
2023-01-09T04:44:19.679Z,4.90
2023-01-09T04:46:46.903Z,3.60
2023-01-09T04:49:19.281Z,2.08
2023-01-09T04:51:48.520Z,7.28
2023-01-09T04:54:15.375Z,5.63
2023-01-09T04:56:42.124Z,2.40
2023-01-09T04:59:13.353Z,6.82
2023-01-09T05:01:39.995Z,5.60
2023-01-09T05:04:07.040Z,6.07
2023-01-09T05:06:41.015Z,2.53
2023-01-09T05:09:07.635Z,4.25
2023-01-09T05:11:34.269Z,6.47
2023-01-09T05:14:00.801Z,6.03
2023-01-09T05:16:31.327Z,3.95
2023-01-09T05:18:58.181Z,4.32
2023-01-09T05:21:24.851Z,4.65
2023-01-09T05:23:54.055Z,7.78
2023-01-09T05:26:24.950Z,4.40
2023-01-09T05:28:52.326Z,6.25
2023-01-09T05:31:20.007Z,4.47
2023-01-09T05:33:46.667Z,8.02
2023-01-09T05:36:15.624Z,7.78
2023-01-09T05:38:42.241Z,10.07
2023-01-09T05:41:08.961Z,4.50
2023-01-09T05:43:37.874Z,5.22
2023-01-09T05:46:04.747Z,3.13
2023-01-09T05:48:31.359Z,9.32
2023-01-09T05:51:00.118Z,6.50
2023-01-09T05:53:26.651Z,3.35
2023-01-09T05:55:53.212Z,4.30
2023-01-09T05:58:22.070Z,4.47
2023-01-09T06:00:49.502Z,3.47
2023-01-09T06:03:16.095Z,8.88
2023-01-09T06:05:44.934Z,10.20
2023-01-09T06:08:13.696Z,8.70
2023-01-09T06:10:40.200Z,4.20
2023-01-09T06:13:06.689Z,5.43
2023-01-09T06:15:35.854Z,5.78
2023-01-09T06:18:02.539Z,8.32
2023-01-09T06:20:29.137Z,9.75
2023-01-09T06:22:55.703Z,9.00
2023-01-09T06:25:22.237Z,3.13
2023-01-09T06:27:49.169Z,8.63
2023-01-09T06:30:16.582Z,7.63
2023-01-09T06:32:43.216Z,8.43
2023-01-09T06:35:10.257Z,6.40
2023-01-09T06:37:37.682Z,8.43
2023-01-09T06:40:04.588Z,7.55
2023-01-09T06:42:31.196Z,7.20
2023-01-09T06:44:57.749Z,4.35
2023-01-09T06:47:24.336Z,6.32
2023-01-09T06:49:50.950Z,9.20
2023-01-09T06:52:19.887Z,4.47
2023-01-09T06:54:46.436Z,7.43
2023-01-09T06:57:16.245Z,7.35
2023-01-09T06:59:42.837Z,6.00
2023-01-09T07:02:19.077Z,3.95
2023-01-09T07:04:45.706Z,6.80
2023-01-09T07:07:13.827Z,5.75
2023-01-09T07:09:40.490Z,8.63
2023-01-09T07:12:07.233Z,8.45
2023-01-09T07:14:34.222Z,7.88
2023-01-09T07:17:00.782Z,9.95
2023-01-09T07:19:27.496Z,5.63
2023-01-09T07:21:56.423Z,5.10
2023-01-09T07:24:23.022Z,6.63
2023-01-09T07:26:51.802Z,9.45
2023-01-09T07:29:18.343Z,6.78
2023-01-09T07:31:47.734Z,6.97
2023-01-09T07:34:14.383Z,3.58
2023-01-09T07:36:46.453Z,7.03
2023-01-09T07:39:13.788Z,7.93
2023-01-09T07:41:40.512Z,6.85
2023-01-09T07:44:09.569Z,4.70
2023-01-09T07:46:37.569Z,7.63
2023-01-09T07:49:06.506Z,6.97
2023-01-09T07:51:33.243Z,5.90
2023-01-09T07:53:59.801Z,7.70
2023-01-09T07:56:26.387Z,7.32
2023-01-09T07:58:52.962Z,5.00
2023-01-09T08:01:19.622Z,6.75
2023-01-09T08:03:46.195Z,6.75
2023-01-09T08:06:12.860Z,5.07
2023-01-09T08:08:39.428Z,6.60
2023-01-09T08:11:06.023Z,6.93
2023-01-09T08:13:34.845Z,8.13
2023-01-09T08:16:01.660Z,6.57
2023-01-09T08:18:28.336Z,5.80
2023-01-09T08:20:54.872Z,10.48
2023-01-09T08:23:21.382Z,8.60
2023-01-09T08:25:47.943Z,8.55
2023-01-09T08:28:19.241Z,8.63
2023-01-09T08:30:48.339Z,4.57
2023-01-09T08:33:15.063Z,7.55
2023-01-09T08:35:44.300Z,10.85
2023-01-09T08:38:11.389Z,6.00
2023-01-09T08:40:38.496Z,6.28
2023-01-09T08:43:35.031Z,9.80
2023-01-09T08:46:01.773Z,6.78
2023-01-09T08:48:28.341Z,6.55
2023-01-09T08:50:54.954Z,9.98
2023-01-09T08:53:21.591Z,7.35
2023-01-09T08:55:48.227Z,7.15
2023-01-09T08:58:14.845Z,4.93
2023-01-09T09:00:43.627Z,5.18
2023-01-09T09:03:12.912Z,7.20
2023-01-09T09:05:39.507Z,10.50
2023-01-09T09:08:08.578Z,4.38
2023-01-09T09:10:35.160Z,8.15
2023-01-09T09:13:01.767Z,7.30
2023-01-09T09:15:28.823Z,6.65
2023-01-09T09:18:02.482Z,7.38
2023-01-09T09:20:34.950Z,9.82
2023-01-09T09:23:01.788Z,7.05
2023-01-09T09:25:28.784Z,9.13
2023-01-09T09:27:56.472Z,6.78
2023-01-09T09:30:25.482Z,9.73
2023-01-09T09:32:54.438Z,5.90
2023-01-09T09:35:22.596Z,7.32
2023-01-09T09:38:02.652Z,7.15
2023-01-09T09:40:56.080Z,5.55
2023-01-09T09:43:49.743Z,8.65
2023-01-09T09:46:41.043Z,9.80
2023-01-09T09:49:19.002Z,8.13
2023-01-09T09:51:54.733Z,8.73
2023-01-09T09:54:31.378Z,6.22
2023-01-09T09:57:04.235Z,10.82
2023-01-09T09:59:34.557Z,9.23
2023-01-09T10:02:11.421Z,7.97
2023-01-09T10:04:44.609Z,9.80
2023-01-09T10:07:22.099Z,6.25
2023-01-09T10:09:55.547Z,8.25
2023-01-09T10:12:22.070Z,11.15
2023-01-09T10:14:48.699Z,11.20
2023-01-09T10:17:27.527Z,9.65
2023-01-09T10:20:25.155Z,10.48
2023-01-09T10:22:54.698Z,11.45
2023-01-09T10:25:32.380Z,10.15
2023-01-09T10:28:11.935Z,10.85
2023-01-09T10:30:52.366Z,10.32
2023-01-09T10:33:50.318Z,9.23
2023-01-09T10:36:25.979Z,6.72
2023-01-09T10:38:56.363Z,6.72
2023-01-09T10:41:29.562Z,8.45
2023-01-09T10:44:16.704Z,7.50
2023-01-09T10:46:53.325Z,5.80
2023-01-09T10:49:21.966Z,8.00
2023-01-09T10:52:01.660Z,7.90
2023-01-09T10:54:29.544Z,7.00
2023-01-09T10:57:02.393Z,8.45
2023-01-09T10:59:30.756Z,9.38
2023-01-09T11:01:57.674Z,13.95
2023-01-09T11:04:31.595Z,8.88
2023-01-09T11:07:15.734Z,9.68
2023-01-09T11:10:02.329Z,10.75
2023-01-09T11:12:31.341Z,8.13
2023-01-09T11:15:16.174Z,7.60
2023-01-09T11:17:43.737Z,8.77
2023-01-09T11:20:18.012Z,5.07
2023-01-09T11:22:52.866Z,6.75
2023-01-09T11:25:21.009Z,11.50
2023-01-09T11:28:06.636Z,12.73
2023-01-09T11:30:37.788Z,7.65
2023-01-09T11:33:18.684Z,8.93
2023-01-09T11:36:05.180Z,9.45
2023-01-09T11:38:45.807Z,4.65
2023-01-09T11:41:21.233Z,8.70
2023-01-09T11:43:50.872Z,10.98
2023-01-09T11:46:44.020Z,9.93
2023-01-09T11:52:41.651Z,8.52
2023-01-09T11:55:14.042Z,6.47
2023-01-09T11:57:40.725Z,5.82
2023-01-09T12:00:37.884Z,10.15
2023-01-09T12:03:45.969Z,6.43
2023-01-09T12:06:21.947Z,10.85
2023-01-09T12:09:11.437Z,9.80
2023-01-09T12:11:52.778Z,16.08
2023-01-09T12:14:41.681Z,16.55
2023-01-09T12:17:23.041Z,10.63
2023-01-09T12:19:57.455Z,16.48
2023-01-09T12:22:32.984Z,11.73
2023-01-09T12:25:25.342Z,17.88
2023-01-09T12:28:39.864Z,12.52
2023-01-09T12:31:15.258Z,11.93
2023-01-09T12:34:12.331Z,8.02
2023-01-09T12:37:02.138Z,9.90
2023-01-09T12:40:00.650Z,10.70
2023-01-09T12:42:51.065Z,6.57
2023-01-09T12:45:44.431Z,9.88
2023-01-09T12:48:41.212Z,16.10
2023-01-09T12:51:19.956Z,16.75
2023-01-09T12:54:10.361Z,10.45
2023-01-09T12:57:00.503Z,12.23
2023-01-09T12:59:39.556Z,13.88
2023-01-09T13:02:09.115Z,10.18
2023-01-09T13:04:44.910Z,9.55
2023-01-09T13:07:20.461Z,12.55
2023-01-09T13:09:52.083Z,7.80
2023-01-09T13:12:24.361Z,8.30
2023-01-09T13:15:06.123Z,7.40
2023-01-09T13:18:05.298Z,8.93
2023-01-09T13:20:49.201Z,14.10
2023-01-09T13:23:25.641Z,9.27
2023-01-09T13:25:58.181Z,11.48
2023-01-09T13:28:40.035Z,10.95
2023-01-09T13:31:36.279Z,10.32
2023-01-09T13:34:08.688Z,10.30
2023-01-09T13:36:48.285Z,10.60
2023-01-09T13:39:27.051Z,7.90
2023-01-09T13:42:23.857Z,5.60
2023-01-09T13:44:54.770Z,7.30
2023-01-09T13:47:32.087Z,10.50
2023-01-09T13:50:09.064Z,4.80
2023-01-09T13:52:39.879Z,4.53
2023-01-09T13:55:14.910Z,11.32
2023-01-09T13:58:06.095Z,5.93
2023-01-09T14:00:35.629Z,7.55
2023-01-09T14:03:08.579Z,3.72
2023-01-09T14:05:35.144Z,9.43
2023-01-09T14:08:06.907Z,9.55
2023-01-09T14:10:48.138Z,6.05
2023-01-09T14:13:22.523Z,6.22
2023-01-09T14:15:51.332Z,10.52
2023-01-09T14:18:17.896Z,6.53
2023-01-09T14:20:59.361Z,7.03
2023-01-09T14:23:50.845Z,8.38
2023-01-09T14:26:24.646Z,6.18
2023-01-09T14:29:29.480Z,5.38
2023-01-09T14:32:26.346Z,4.07
2023-01-09T14:35:08.099Z,5.78
2023-01-09T14:37:40.944Z,4.68
2023-01-09T14:40:15.553Z,7.13
2023-01-09T14:42:46.643Z,7.05
2023-01-09T14:45:20.964Z,9.68
2023-01-09T14:47:53.400Z,5.50
2023-01-09T14:50:45.617Z,6.28
2023-01-09T14:53:18.341Z,7.40
2023-01-09T14:56:06.265Z,9.43
2023-01-09T14:58:36.761Z,12.63
2023-01-09T15:01:27.253Z,9.85
2023-01-09T15:03:59.519Z,11.80
2023-01-09T15:06:33.536Z,7.50
2023-01-09T15:09:05.726Z,7.55
2023-01-09T15:11:34.865Z,9.18
2023-01-09T15:14:04.389Z,14.32
2023-01-09T15:16:32.646Z,9.75
2023-01-09T15:19:03.066Z,8.20
2023-01-09T15:21:31.738Z,6.57
2023-01-09T15:24:21.610Z,8.25
2023-01-09T15:26:59.753Z,7.90
2023-01-09T15:29:29.065Z,4.18
2023-01-09T15:32:03.920Z,5.78
2023-01-09T15:34:30.897Z,4.45
2023-01-09T15:37:00.905Z,8.10
2023-01-09T15:39:31.437Z,7.18
2023-01-09T15:42:18.821Z,10.77
2023-01-09T15:44:48.822Z,11.68
2023-01-09T15:47:22.615Z,9.10
2023-01-09T15:49:50.254Z,6.50
2023-01-09T15:52:18.390Z,8.93
2023-01-09T15:54:47.009Z,8.80
2023-01-09T15:57:25.835Z,9.07
2023-01-09T15:59:57.542Z,5.25
2023-01-09T16:02:44.286Z,10.35
2023-01-09T16:05:16.114Z,8.00
2023-01-09T16:07:48.255Z,16.40
2023-01-09T16:10:30.345Z,9.15
2023-01-09T16:12:57.501Z,15.25
2023-01-09T16:15:27.379Z,12.18
2023-01-09T16:18:16.138Z,8.45
2023-01-09T16:20:44.358Z,11.68
2023-01-09T16:23:22.879Z,10.98
2023-01-09T16:25:49.982Z,9.45
2023-01-09T16:28:26.841Z,8.40
2023-01-09T16:30:56.634Z,9.68
2023-01-09T16:33:25.788Z,10.73
2023-01-09T16:35:53.451Z,9.15
2023-01-09T16:38:21.223Z,12.82
2023-01-09T16:41:26.960Z,11.15
2023-01-09T16:43:56.500Z,9.77
2023-01-09T16:46:23.203Z,11.73
2023-01-09T16:48:49.882Z,9.32
2023-01-09T16:51:21.747Z,5.07
2023-01-09T16:53:49.365Z,9.98
2023-01-09T16:56:22.050Z,6.38
2023-01-09T16:58:48.917Z,7.32
2023-01-09T17:01:15.969Z,6.40
2023-01-09T17:03:44.258Z,6.63
2023-01-09T17:06:30.320Z,6.60
2023-01-09T17:08:57.689Z,10.13
2023-01-09T17:11:32.934Z,10.88
2023-01-09T17:14:03.805Z,8.90
2023-01-09T17:16:30.603Z,12.30
2023-01-09T17:18:57.636Z,8.13
2023-01-09T17:21:29.509Z,9.38
2023-01-09T17:24:15.164Z,5.65
2023-01-09T17:27:04.704Z,14.27
2023-01-09T17:29:34.561Z,8.75
2023-01-09T17:32:01.601Z,7.00
2023-01-09T17:34:28.192Z,7.07
2023-01-09T17:36:57.128Z,6.05
2023-01-09T17:39:26.865Z,11.65
2023-01-09T17:41:53.631Z,5.53
2023-01-09T17:44:20.183Z,6.40
2023-01-09T17:46:46.801Z,7.05
2023-01-09T17:49:19.108Z,8.32
2023-01-09T17:51:45.771Z,8.27
2023-01-09T17:54:13.052Z,6.60
2023-01-09T17:56:45.681Z,6.18
2023-01-09T17:59:13.895Z,6.45
2023-01-09T18:01:41.125Z,9.80
2023-01-09T18:04:07.988Z,10.63
2023-01-09T18:06:36.473Z,7.60
2023-01-09T18:09:14.078Z,5.40
2023-01-09T18:11:40.987Z,4.68
2023-01-09T18:14:08.885Z,9.57
2023-01-09T18:16:35.578Z,4.07
2023-01-09T18:19:02.686Z,7.35
2023-01-09T18:21:30.711Z,9.73
2023-01-09T18:23:58.178Z,9.05
2023-01-09T18:26:24.781Z,8.68
2023-01-09T18:28:56.321Z,8.60
2023-01-09T18:31:24.649Z,4.22
2023-01-09T18:33:53.350Z,8.32
2023-01-09T18:36:21.565Z,10.25
2023-01-09T18:38:53.324Z,4.13
2023-01-09T18:41:21.201Z,7.45
2023-01-09T18:43:55.647Z,7.90
2023-01-09T18:46:25.146Z,8.82
2023-01-09T18:48:58.648Z,7.95
2023-01-09T18:51:26.748Z,9.00
2023-01-09T18:53:54.947Z,10.32
2023-01-09T18:56:22.396Z,8.43
2023-01-09T18:58:49.176Z,9.10
2023-01-09T19:01:16.062Z,8.27
2023-01-09T19:03:42.713Z,5.32
2023-01-09T19:06:09.601Z,8.15
2023-01-09T19:08:36.230Z,12.80
2023-01-09T19:11:03.241Z,7.30
2023-01-09T19:13:35.876Z,9.75
2023-01-09T19:16:04.135Z,8.32
2023-01-09T19:18:37.068Z,9.45
2023-01-09T19:21:11.245Z,9.25
2023-01-09T19:23:37.926Z,6.20
2023-01-09T19:26:08.426Z,8.57
2023-01-09T19:28:36.425Z,12.35
2023-01-09T19:31:03.056Z,9.15
2023-01-09T19:33:29.610Z,9.63
2023-01-09T19:35:56.201Z,6.28
2023-01-09T19:38:26.838Z,10.10
2023-01-09T19:40:53.361Z,8.55
2023-01-09T19:43:26.196Z,11.93
2023-01-09T19:45:54.388Z,12.10
2023-01-09T19:48:22.771Z,12.20
2023-01-09T19:50:49.777Z,12.75
2023-01-09T19:53:16.346Z,15.40
2023-01-09T19:55:42.895Z,13.55
2023-01-09T19:58:09.632Z,9.75
2023-01-09T20:00:36.769Z,8.93
2023-01-09T20:03:04.434Z,13.30
2023-01-09T20:05:30.988Z,12.40
2023-01-09T20:07:57.704Z,9.43
2023-01-09T20:10:26.719Z,7.40
2023-01-09T20:12:53.284Z,10.18
2023-01-09T20:15:19.860Z,8.88
2023-01-09T20:17:46.411Z,8.23
2023-01-09T20:20:13.089Z,10.48
2023-01-09T20:22:42.017Z,11.50
2023-01-09T20:25:10.389Z,10.18
2023-01-09T20:27:37.034Z,10.23
2023-01-09T20:30:04.021Z,9.40
2023-01-09T20:32:32.346Z,11.95
2023-01-09T20:34:59.023Z,11.32
2023-01-09T20:37:25.981Z,8.90
2023-01-09T20:39:53.237Z,12.10
2023-01-09T20:42:19.891Z,11.70
2023-01-09T20:44:47.037Z,10.55
2023-01-09T20:47:13.917Z,9.80
2023-01-09T20:49:40.418Z,16.60
2023-01-09T20:52:06.916Z,7.30
2023-01-09T20:54:41.094Z,12.60
2023-01-09T20:57:09.870Z,10.30
2023-01-09T20:59:36.615Z,13.32
2023-01-09T21:02:03.219Z,10.45
2023-01-09T21:04:31.195Z,14.23
2023-01-09T21:07:00.125Z,12.98
2023-01-09T21:09:27.179Z,12.57
2023-01-09T21:11:53.716Z,14.15
2023-01-09T21:14:20.313Z,14.82
2023-01-09T21:16:54.656Z,14.50
2023-01-09T21:19:24.836Z,10.73
2023-01-09T21:21:53.228Z,7.78
2023-01-09T21:24:20.060Z,19.88
2023-01-09T21:26:46.621Z,10.48
2023-01-09T21:29:18.973Z,9.98
2023-01-09T21:31:48.018Z,11.80
2023-01-09T21:34:17.382Z,5.43
2023-01-09T21:36:45.179Z,6.53
2023-01-09T21:39:11.770Z,11.77
2023-01-09T21:41:57.130Z,7.47
2023-01-09T21:44:42.114Z,12.52
2023-01-09T21:47:09.064Z,10.20
2023-01-09T21:49:40.696Z,14.48
2023-01-09T21:52:09.930Z,9.98
2023-01-09T21:54:36.714Z,14.68
2023-01-09T21:57:04.050Z,8.25
2023-01-09T21:59:30.694Z,11.00
2023-01-09T22:01:57.683Z,8.82
2023-01-09T22:04:28.269Z,12.48
2023-01-09T22:06:55.596Z,13.10
2023-01-09T22:09:22.203Z,8.93
2023-01-09T22:11:48.745Z,9.80
2023-01-09T22:14:21.594Z,9.55
2023-01-09T22:16:48.560Z,9.27
2023-01-09T22:19:18.864Z,10.32
2023-01-09T22:21:46.121Z,10.55
2023-01-09T22:24:16.622Z,9.80
2023-01-09T22:26:43.928Z,14.18
2023-01-09T22:29:12.734Z,13.52
2023-01-09T22:31:40.181Z,13.43
2023-01-09T22:34:12.827Z,10.30
2023-01-09T22:36:39.406Z,15.85
2023-01-09T22:39:06.098Z,12.20
2023-01-09T22:41:32.848Z,15.15
2023-01-09T22:43:59.617Z,15.18
2023-01-09T22:46:26.647Z,12.57
2023-01-09T22:48:53.226Z,16.35
2023-01-09T22:51:21.291Z,12.38
2023-01-09T22:53:48.341Z,14.57
2023-01-09T22:56:17.730Z,10.52
2023-01-09T22:58:44.451Z,13.80
2023-01-09T23:01:12.268Z,11.80
2023-01-09T23:03:39.591Z,13.93
2023-01-09T23:06:12.493Z,14.35
2023-01-09T23:08:39.839Z,6.80
2023-01-09T23:11:09.534Z,10.00
2023-01-09T23:13:36.648Z,10.60
2023-01-09T23:16:06.218Z,8.50
2023-01-09T23:18:33.338Z,12.85
2023-01-09T23:21:04.781Z,19.00
2023-01-09T23:23:32.348Z,9.35
2023-01-09T23:26:02.262Z,12.77
2023-01-09T23:28:30.473Z,13.63
2023-01-09T23:30:57.291Z,10.18
2023-01-09T23:33:26.312Z,12.88
2023-01-09T23:35:52.878Z,12.50
2023-01-09T23:38:20.550Z,15.38
2023-01-09T23:40:55.376Z,17.42
2023-01-09T23:43:21.949Z,7.47
2023-01-09T23:45:51.070Z,10.93
2023-01-09T23:48:18.780Z,20.95
2023-01-09T23:50:53.959Z,10.13
2023-01-09T23:53:23.410Z,18.10
2023-01-09T23:55:55.798Z,10.57
2023-01-09T23:58:22.541Z,10.82
